Time;durP1;ratioP1;P1;durP2;ratioP2;P2;SDS_P1;SDS_P2;PMS_P1;PMS_P2;Temp;Humidity;BMP_temperature;BMP_pressure;BME280_temperature;BME280_humidity;BME280_pressure;Samples;Min_cycle;Max_cycle;Signal;HPM_P1;HPM_P2
2023/12/14 00:02:43;;;;;;;9.50;3.53;;;;;;;3.59;100.00;100148.75;6074901;28;20029;-72
2023/12/14 00:05:38;;;;;;;12.03;5.00;;;;;;;3.63;100.00;100159.00;6075452;28;20030;-72
2023/12/14 00:08:33;;;;;;;9.73;4.67;;;;;;;3.63;100.00;100159.00;6073265;28;20044;-72
2023/12/14 00:11:29;;;;;;;10.60;4.73;;;;;;;3.61;100.00;100152.09;6074306;28;20034;-72
2023/12/14 00:14:24;;;;;;;12.20;4.40;;;;;;;3.74;100.00;100166.91;6075118;28;20119;-72
2023/12/14 00:17:20;;;;;;;10.20;3.80;;;;;;;3.56;100.00;100159.47;6074094;28;20041;-72
2023/12/14 00:20:15;;;;;;;8.53;3.67;;;;;;;3.54;100.00;100171.03;6075397;28;20162;-72
2023/12/14 00:23:10;;;;;;;12.10;4.10;;;;;;;3.59;100.00;100177.59;6072596;28;20112;-72
2023/12/14 00:26:05;;;;;;;9.93;4.23;;;;;;;3.37;100.00;100171.47;6075031;28;20272;-73
2023/12/14 00:29:01;;;;;;;8.47;3.57;;;;;;;3.36;100.00;100182.88;6074472;28;20095;-72
2023/12/14 00:31:56;;;;;;;8.67;4.27;;;;;;;3.34;100.00;100187.41;6074769;28;20112;-73
2023/12/14 00:34:51;;;;;;;9.10;3.97;;;;;;;3.38;100.00;100191.47;6074852;28;20033;-72
2023/12/14 00:37:47;;;;;;;8.83;3.97;;;;;;;3.41;100.00;100199.09;6073894;28;20360;-73
2023/12/14 00:40:42;;;;;;;9.10;4.23;;;;;;;3.48;100.00;100197.69;6073255;28;20069;-72
2023/12/14 00:43:38;;;;;;;7.47;3.70;;;;;;;3.43;100.00;100211.13;6074094;28;20029;-73
2023/12/14 00:46:33;;;;;;;8.07;3.28;;;;;;;3.39;100.00;100214.94;6071861;28;20046;-72
2023/12/14 00:49:28;;;;;;;8.27;3.57;;;;;;;3.44;100.00;100218.06;6071721;28;20033;-73
2023/12/14 00:52:24;;;;;;;10.30;4.88;;;;;;;3.33;100.00;100214.53;6073790;28;20021;-72
2023/12/14 00:55:19;;;;;;;11.43;4.57;;;;;;;3.38;100.00;100228.16;6074346;28;20026;-72
2023/12/14 00:58:14;;;;;;;9.03;4.33;;;;;;;3.39;100.00;100241.16;6073607;28;20041;-72
2023/12/14 01:01:10;;;;;;;10.13;4.30;;;;;;;3.50;100.00;100243.81;6074197;28;20061;-73
2023/12/14 01:04:05;;;;;;;11.90;4.00;;;;;;;3.60;100.00;100252.66;6089436;28;20087;-73
2023/12/14 01:07:00;;;;;;;8.88;4.10;;;;;;;3.49;100.00;100247.38;6074251;28;20279;-73
2023/12/14 01:09:56;;;;;;;9.23;3.83;;;;;;;3.48;100.00;100250.94;6069563;28;20428;-72
2023/12/14 01:12:51;;;;;;;7.30;3.60;;;;;;;3.47;100.00;100249.28;6073345;28;20057;-72
2023/12/14 01:15:47;;;;;;;10.03;4.23;;;;;;;3.49;100.00;100257.88;6073977;28;20057;-72
2023/12/14 01:18:42;;;;;;;9.07;3.90;;;;;;;3.47;100.00;100275.50;6072166;28;20033;-73
2023/12/14 01:21:37;;;;;;;7.63;3.90;;;;;;;3.46;100.00;100289.53;6073165;28;20025;-71
2023/12/14 01:24:33;;;;;;;7.90;3.77;;;;;;;3.54;100.00;100295.06;6073842;28;20029;-72
2023/12/14 01:27:28;;;;;;;9.50;4.03;;;;;;;3.45;100.00;100298.34;6073790;28;20037;-72
2023/12/14 01:30:23;;;;;;;10.43;4.40;;;;;;;3.40;100.00;100292.59;6074729;28;20026;-72
2023/12/14 01:33:19;;;;;;;11.23;4.33;;;;;;;3.45;100.00;100303.56;6073041;28;20314;-72
2023/12/14 01:36:24;;;;;;;9.63;4.47;;;;;;;3.29;100.00;100316.09;6074761;28;20056;-72
2023/12/14 01:39:20;;;;;;;8.95;4.15;;;;;;;3.27;100.00;100315.38;6071461;28;20482;-72
2023/12/14 01:42:15;;;;;;;11.70;4.93;;;;;;;3.22;100.00;100316.66;6073010;28;20037;-73
2023/12/14 01:45:11;;;;;;;10.90;4.70;;;;;;;3.18;100.00;100318.66;6073079;28;20026;-72
2023/12/14 01:48:06;;;;;;;9.30;4.07;;;;;;;3.22;100.00;100329.75;6073508;28;20268;-72
2023/12/14 01:51:02;;;;;;;14.77;5.00;;;;;;;3.12;100.00;100334.81;6068692;28;20117;-72
2023/12/14 01:53:57;;;;;;;8.88;3.60;;;;;;;3.10;100.00;100334.06;6072886;28;20053;-72
2023/12/14 01:56:54;;;;;;;10.80;4.50;;;;;;;3.01;100.00;100319.03;6073140;28;20037;-72
2023/12/14 01:59:49;;;;;;;11.02;4.80;;;;;;;2.96;100.00;100321.94;6071513;28;20032;-72
2023/12/14 02:02:44;;;;;;;11.37;4.67;;;;;;;2.94;100.00;100330.84;6071183;28;20033;-72
2023/12/14 02:05:40;;;;;;;11.90;4.25;;;;;;;3.11;100.00;100337.53;6072564;28;20029;-72
2023/12/14 02:08:35;;;;;;;9.67;4.20;;;;;;;3.07;100.00;100354.44;6071309;28;20044;-72
2023/12/14 02:11:30;;;;;;;8.35;3.97;;;;;;;3.13;100.00;100360.06;6069618;28;20032;-72
2023/12/14 02:14:26;;;;;;;9.13;4.20;;;;;;;2.97;100.00;100364.69;6072223;28;20116;-72
2023/12/14 02:17:22;;;;;;;7.47;3.58;;;;;;;3.03;100.00;100371.28;6072632;28;20049;-72
2023/12/14 02:20:17;;;;;;;9.75;4.03;;;;;;;2.94;100.00;100370.13;6072732;28;20034;-72
2023/12/14 02:23:13;;;;;;;10.23;4.63;;;;;;;2.98;100.00;100369.84;6071561;28;20048;-73
2023/12/14 02:26:08;;;;;;;8.98;3.80;;;;;;;2.96;100.00;100376.13;6071130;28;20029;-73
2023/12/14 02:29:03;;;;;;;10.03;4.07;;;;;;;2.98;100.00;100372.47;6072256;28;20515;-72
2023/12/14 02:31:59;;;;;;;9.73;4.13;;;;;;;3.12;100.00;100384.59;6070994;28;20036;-72
2023/12/14 02:34:54;;;;;;;11.82;4.38;;;;;;;2.96;100.00;100389.22;6072186;28;20022;-72
2023/12/14 02:37:49;;;;;;;9.03;3.67;;;;;;;3.12;100.00;100379.34;6088094;28;20427;-73
2023/12/14 02:40:45;;;;;;;8.97;4.23;;;;;;;3.04;100.00;100391.31;6072001;28;20551;-73
2023/12/14 02:43:40;;;;;;;8.90;4.20;;;;;;;3.05;100.00;100400.81;6069790;28;20056;-72
2023/12/14 02:46:35;;;;;;;8.70;3.28;;;;;;;3.06;100.00;100399.88;6071478;28;20038;-72
2023/12/14 02:49:31;;;;;;;7.43;3.47;;;;;;;3.15;100.00;100405.34;6072352;28;20115;-72
2023/12/14 02:52:26;;;;;;;7.82;3.80;;;;;;;3.13;100.00;100412.44;6069976;28;20378;-72
2023/12/14 02:55:21;;;;;;;7.95;3.80;;;;;;;2.91;100.00;100402.59;6071959;28;20036;-73
2023/12/14 02:58:18;;;;;;;10.37;4.00;;;;;;;2.82;100.00;100391.94;6070365;28;20065;-72
2023/12/14 03:01:13;;;;;;;7.68;3.75;;;;;;;3.01;100.00;100410.69;6070412;28;20022;-72
2023/12/14 03:04:09;;;;;;;8.63;4.37;;;;;;;3.09;100.00;100415.38;6070083;28;20041;-72
2023/12/14 03:07:04;;;;;;;12.17;4.93;;;;;;;3.05;100.00;100417.38;6068799;28;20128;-73
2023/12/14 03:09:59;;;;;;;9.50;4.83;;;;;;;3.06;100.00;100423.47;6071981;28;20491;-72
2023/12/14 03:12:55;;;;;;;9.38;4.53;;;;;;;2.87;100.00;100436.97;6074893;28;20116;-72
2023/12/14 03:15:50;;;;;;;11.00;4.40;;;;;;;2.90;100.00;100429.75;6076421;28;20068;-72
2023/12/14 03:18:45;;;;;;;9.60;3.97;;;;;;;2.90;100.00;100431.53;6076174;28;20264;-71
2023/12/14 03:21:41;;;;;;;8.20;3.77;;;;;;;2.94;100.00;100438.22;6074994;28;20037;-72
2023/12/14 03:24:36;;;;;;;9.73;4.27;;;;;;;2.99;100.00;100438.75;6075466;28;20029;-72
2023/12/14 03:27:32;;;;;;;9.70;4.20;;;;;;;2.89;100.00;100432.47;6075845;28;20068;-72
2023/12/14 03:30:27;;;;;;;10.77;4.70;;;;;;;2.98;100.00;100435.31;6076002;28;20037;-73
2023/12/14 03:33:22;;;;;;;12.27;4.60;;;;;;;2.99;100.00;100433.50;6075953;28;20033;-72
2023/12/14 03:36:17;;;;;;;13.27;4.60;;;;;;;2.97;100.00;100438.00;6076222;28;20034;-72
2023/12/14 03:39:13;;;;;;;11.27;4.77;;;;;;;3.24;100.00;100451.84;6075446;28;20507;-72
2023/12/14 03:42:08;;;;;;;10.73;5.10;;;;;;;3.03;100.00;100442.84;6075164;28;20037;-72
2023/12/14 03:45:04;;;;;;;10.23;5.43;;;;;;;2.95;100.00;100456.47;6075617;28;20025;-72
2023/12/14 03:47:59;;;;;;;11.57;5.00;;;;;;;3.04;100.00;100451.53;6076200;28;20025;-72
2023/12/14 03:50:54;;;;;;;13.63;4.83;;;;;;;3.01;100.00;100463.06;6074806;28;20034;-72
2023/12/14 03:53:50;;;;;;;9.43;4.53;;;;;;;2.97;100.00;100466.81;6074813;28;20017;-71
2023/12/14 03:56:45;;;;;;;10.83;4.80;;;;;;;2.99;100.00;100478.88;6075002;28;20042;-72
2023/12/14 03:59:40;;;;;;;12.47;4.60;;;;;;;2.90;100.00;100466.41;6075090;28;20037;-72
2023/12/14 04:02:36;;;;;;;14.63;5.40;;;;;;;2.91;100.00;100481.16;6077063;28;20030;-72
2023/12/14 04:05:31;;;;;;;14.37;5.40;;;;;;;2.98;100.00;100492.06;6077328;28;20080;-73
2023/12/14 04:08:27;;;;;;;13.25;5.45;;;;;;;2.92;100.00;100482.84;6073759;28;20045;-71
2023/12/14 04:11:22;;;;;;;8.80;4.07;;;;;;;2.97;100.00;100486.00;6073160;28;20041;-72
2023/12/14 04:14:17;;;;;;;12.90;5.37;;;;;;;3.00;100.00;100495.44;6071081;28;20466;-72
2023/12/14 04:17:13;;;;;;;13.47;5.23;;;;;;;2.86;100.00;100485.03;6076156;28;20038;-73
2023/12/14 04:20:08;;;;;;;15.65;5.65;;;;;;;2.89;100.00;100492.69;6075916;28;20026;-72
2023/12/14 04:23:04;;;;;;;12.13;5.40;;;;;;;2.92;100.00;100506.41;6072459;28;20404;-74
2023/12/14 04:25:59;;;;;;;11.60;5.47;;;;;;;2.79;100.00;100510.81;6075462;28;20392;-72
2023/12/14 04:28:54;;;;;;;14.03;5.10;;;;;;;2.91;100.00;100524.84;6080766;28;20459;-72
2023/12/14 04:31:50;;;;;;;13.90;5.37;;;;;;;2.90;100.00;100525.78;6074899;28;20044;-72
2023/12/14 04:34:45;;;;;;;10.07;5.20;;;;;;;3.12;100.00;100536.50;6073863;28;20065;-72
2023/12/14 04:37:40;;;;;;;12.23;4.77;;;;;;;3.08;100.00;100540.28;6075298;28;20041;-72
2023/12/14 04:40:36;;;;;;;10.80;5.50;;;;;;;3.17;100.00;100555.38;6075451;28;20032;-72
2023/12/14 04:43:32;;;;;;;12.80;5.23;;;;;;;2.93;100.00;100551.78;6073853;28;20037;-72
2023/12/14 04:46:27;;;;;;;11.35;4.78;;;;;;;2.90;100.00;100562.47;6073912;28;20021;-73
2023/12/14 04:49:22;;;;;;;9.77;4.30;;;;;;;2.94;100.00;100554.28;6075338;28;20056;-73
2023/12/14 04:52:18;;;;;;;9.40;4.23;;;;;;;2.95;100.00;100565.59;6073638;28;20515;-73
2023/12/14 04:55:13;;;;;;;10.03;4.37;;;;;;;3.02;100.00;100574.72;6067580;28;20025;-73
2023/12/14 04:58:08;;;;;;;8.83;4.37;;;;;;;2.98;100.00;100578.50;6074908;28;20431;-73
2023/12/14 05:01:04;;;;;;;12.80;4.97;;;;;;;2.90;100.00;100573.78;6074358;28;20093;-72
2023/12/14 05:03:59;;;;;;;15.70;5.63;;;;;;;2.91;100.00;100583.28;6073979;28;20116;-73
2023/12/14 05:06:54;;;;;;;9.90;4.67;;;;;;;2.88;100.00;100591.34;6074075;28;20553;-73
2023/12/14 05:09:49;;;;;;;11.37;4.43;;;;;;;2.95;100.00;100586.56;6074624;28;20396;-73
2023/12/14 05:12:45;;;;;;;14.00;5.30;;;;;;;3.06;100.00;100589.31;6074036;28;20038;-73
2023/12/14 05:15:41;;;;;;;12.47;5.77;;;;;;;3.06;100.00;100598.94;6072044;28;20040;-73
2023/12/14 05:18:36;;;;;;;12.98;5.43;;;;;;;3.03;100.00;100599.97;6074146;28;20026;-73
2023/12/14 05:21:31;;;;;;;11.07;4.70;;;;;;;2.89;100.00;100602.66;6073861;28;20072;-73
2023/12/14 05:24:27;;;;;;;12.30;5.40;;;;;;;2.95;100.00;100617.97;6070083;28;20044;-73
2023/12/14 05:27:22;;;;;;;10.03;4.27;;;;;;;2.95;100.00;100618.81;6074094;28;20299;-72
2023/12/14 05:30:17;;;;;;;10.93;5.00;;;;;;;2.93;100.00;100614.63;6074021;28;20055;-71
2023/12/14 05:33:13;;;;;;;12.37;5.43;;;;;;;2.98;100.00;100623.03;6067470;28;20083;-72
2023/12/14 05:36:10;;;;;;;9.70;4.63;;;;;;;2.84;100.00;100615.22;6073282;28;20026;-73
2023/12/14 05:39:05;;;;;;;11.65;4.45;;;;;;;2.84;100.00;100618.69;6071916;28;20033;-72
2023/12/14 05:42:01;;;;;;;12.43;5.05;;;;;;;2.95;100.00;100636.31;6073429;28;20033;-72
2023/12/14 05:44:56;;;;;;;10.23;4.23;;;;;;;3.10;100.00;100637.91;6073677;28;20032;-72
2023/12/14 05:47:51;;;;;;;10.63;4.30;;;;;;;2.98;100.00;100643.97;6073338;28;20029;-73
2023/12/14 05:50:47;;;;;;;7.60;3.57;;;;;;;2.98;100.00;100650.06;6074013;28;20369;-72
2023/12/14 05:53:43;;;;;;;8.73;3.83;;;;;;;2.93;100.00;100662.63;6072693;28;20342;-72
2023/12/14 05:56:38;;;;;;;8.17;3.90;;;;;;;2.74;100.00;100658.66;6072909;28;20021;-73
2023/12/14 05:59:33;;;;;;;8.87;3.87;;;;;;;2.72;100.00;100669.19;6073728;28;20040;-73
2023/12/14 06:02:28;;;;;;;9.87;4.07;;;;;;;2.71;100.00;100677.16;6072840;28;20044;-73
2023/12/14 06:05:24;;;;;;;7.40;3.10;;;;;;;2.78;100.00;100671.44;6050054;28;20285;-71
2023/12/14 06:08:19;;;;;;;8.60;4.20;;;;;;;2.87;100.00;100688.34;6048640;28;20037;-73
2023/12/14 06:11:14;;;;;;;8.23;4.20;;;;;;;2.86;100.00;100681.41;6051155;28;20034;-71
2023/12/14 06:14:10;;;;;;;8.70;3.87;;;;;;;2.87;100.00;100688.34;6047724;28;20120;-72
2023/12/14 06:17:05;;;;;;;8.90;4.33;;;;;;;3.13;100.00;100690.09;6047770;28;20381;-72
2023/12/14 06:20:00;;;;;;;9.43;3.90;;;;;;;2.81;100.00;100680.88;6045816;28;20061;-72
2023/12/14 06:22:56;;;;;;;7.17;3.13;;;;;;;2.71;100.00;100698.09;6045806;28;20033;-73
2023/12/14 06:25:51;;;;;;;12.10;4.03;;;;;;;2.64;100.00;100709.88;6049801;28;20361;-72
2023/12/14 06:28:47;;;;;;;7.03;3.35;;;;;;;2.72;100.00;100700.59;6044648;28;20037;-72
2023/12/14 06:31:45;;;;;;;6.72;2.92;;;;;;;2.88;100.00;100711.78;6046866;28;20125;-72
2023/12/14 06:34:41;;;;;;;8.07;3.70;;;;;;;2.96;100.00;100701.66;6048203;28;20053;-72
2023/12/14 06:37:36;;;;;;;11.40;4.10;;;;;;;2.93;100.00;100691.41;6048419;28;20037;-72
2023/12/14 06:40:31;;;;;;;8.00;3.70;;;;;;;2.93;100.00;100704.50;6047393;28;20473;-72
2023/12/14 06:43:27;;;;;;;8.27;4.03;;;;;;;2.90;100.00;100703.84;6043013;28;20033;-73
2023/12/14 06:46:22;;;;;;;8.30;4.20;;;;;;;2.84;100.00;100706.84;6045802;28;20053;-72
2023/12/14 06:49:18;;;;;;;9.27;3.40;;;;;;;2.82;100.00;100701.72;6047759;28;20477;-72
2023/12/14 06:52:13;;;;;;;10.43;4.20;;;;;;;2.82;100.00;100712.19;6044441;28;20034;-72
2023/12/14 06:55:09;;;;;;;7.77;3.80;;;;;;;2.83;100.00;100737.44;6050290;28;20026;-72
2023/12/14 06:58:08;;;;;;;11.45;4.63;;;;;;;2.74;100.00;100718.84;5991452;28;20120;-72
2023/12/14 07:01:04;;;;;;;8.57;4.20;;;;;;;2.94;100.00;100736.75;6019213;28;20034;-71
2023/12/14 07:04:00;;;;;;;10.50;4.20;;;;;;;2.84;100.00;100743.50;6003378;28;1075883;-72
2023/12/14 07:06:55;;;;;;;10.98;4.68;;;;;;;2.83;100.00;100747.91;6053657;28;20535;-72
2023/12/14 07:09:51;;;;;;;7.83;3.17;;;;;;;2.74;100.00;100745.88;6052091;28;20424;-72
2023/12/14 07:12:46;;;;;;;10.02;4.88;;;;;;;2.94;100.00;100742.00;6050462;28;20065;-72
2023/12/14 07:15:42;;;;;;;9.23;4.23;;;;;;;3.13;100.00;100752.97;6051383;28;20141;-72
2023/12/14 07:18:38;;;;;;;10.87;3.90;;;;;;;3.10;100.00;100752.34;6052641;28;20784;-72
2023/12/14 07:21:33;;;;;;;10.55;4.30;;;;;;;2.90;100.00;100766.69;6056743;28;20289;-72
2023/12/14 07:24:29;;;;;;;10.87;4.40;;;;;;;2.81;100.00;100769.88;6053107;28;20076;-72
2023/12/14 07:27:24;;;;;;;10.07;3.70;;;;;;;2.79;100.00;100784.84;6053107;28;20034;-72
2023/12/14 07:30:20;;;;;;;8.80;3.25;;;;;;;2.84;100.00;100788.03;6053323;28;20284;-72
2023/12/14 07:33:16;;;;;;;10.07;4.28;;;;;;;2.75;100.00;100789.44;6045726;28;20465;-72
2023/12/14 07:36:11;;;;;;;9.68;3.88;;;;;;;2.95;100.00;100796.06;6052150;28;20465;-72
2023/12/14 07:39:08;;;;;;;9.18;4.57;;;;;;;2.98;100.00;100808.97;6051600;28;20033;-73
2023/12/14 07:42:05;;;;;;;8.68;3.70;;;;;;;2.99;100.00;100814.09;6051091;28;20461;-72
2023/12/14 07:45:00;;;;;;;8.45;3.58;;;;;;;2.95;100.00;100819.63;6051908;28;20036;-72
2023/12/14 07:47:56;;;;;;;9.00;3.53;;;;;;;2.91;100.00;100816.34;6052305;28;20042;-72
2023/12/14 07:50:51;;;;;;;8.33;3.53;;;;;;;2.91;100.00;100837.28;6051848;28;20500;-72
2023/12/14 07:53:47;;;;;;;9.15;3.90;;;;;;;2.81;100.00;100824.88;6050584;28;20041;-72
2023/12/14 07:56:42;;;;;;;9.37;3.40;;;;;;;2.76;100.00;100825.16;6052165;28;20026;-73
2023/12/14 07:59:37;;;;;;;7.70;3.43;;;;;;;2.79;100.00;100834.59;6048824;28;20273;-72
2023/12/14 08:02:33;;;;;;;10.57;4.13;;;;;;;2.94;100.00;100851.97;6048541;28;20030;-73
2023/12/14 08:05:28;;;;;;;7.83;4.07;;;;;;;2.96;100.00;100845.72;6050183;28;20030;-73
2023/12/14 08:08:24;;;;;;;8.23;3.80;;;;;;;2.79;100.00;100863.41;6051323;28;20053;-73
2023/12/14 08:11:19;;;;;;;7.05;3.50;;;;;;;2.69;100.00;100851.81;6050298;28;20042;-72
2023/12/14 08:14:14;;;;;;;7.40;3.40;;;;;;;2.78;100.00;100872.19;6054051;28;20030;-72
2023/12/14 08:17:10;;;;;;;7.80;3.03;;;;;;;2.72;100.00;100877.78;6047432;28;20061;-72
2023/12/14 08:20:08;;;;;;;10.88;3.65;;;;;;;2.69;100.00;100888.47;6049386;28;20048;-72
2023/12/14 08:23:04;;;;;;;7.55;3.00;;;;;;;2.81;100.00;100898.19;6062640;28;20030;-72
2023/12/14 08:25:59;;;;;;;8.23;3.50;;;;;;;2.90;100.00;100898.47;6047401;28;20045;-72
2023/12/14 08:28:54;;;;;;;8.07;3.70;;;;;;;2.71;100.00;100900.53;6051633;28;20033;-72
2023/12/14 08:31:50;;;;;;;11.27;4.10;;;;;;;2.79;100.00;100900.06;6054161;28;20061;-73
2023/12/14 08:34:45;;;;;;;7.32;3.45;;;;;;;2.82;100.00;100899.88;6053151;28;20022;-72
2023/12/14 08:37:40;;;;;;;9.07;4.07;;;;;;;2.84;100.00;100918.94;6061908;28;20034;-73
2023/12/14 08:40:36;;;;;;;9.75;4.15;;;;;;;2.66;100.00;100915.66;6046745;28;20088;-72
2023/12/14 08:43:31;;;;;;;9.27;4.03;;;;;;;2.77;100.00;100928.94;6048120;28;20029;-73
2023/12/14 08:46:26;;;;;;;11.00;4.00;;;;;;;2.75;100.00;100924.72;6044239;28;20687;-73
2023/12/14 08:49:23;;;;;;;11.10;3.93;;;;;;;2.80;100.00;100922.69;6051642;28;20069;-72
2023/12/14 08:52:18;;;;;;;9.05;3.92;;;;;;;2.84;100.00;100935.50;6049955;28;20106;-73
2023/12/14 08:55:14;;;;;;;9.15;3.97;;;;;;;2.90;100.00;100950.00;6046753;28;20037;-73
2023/12/14 08:58:09;;;;;;;11.98;4.80;;;;;;;2.89;100.00;100956.16;6048125;28;20034;-73
2023/12/14 09:01:05;;;;;;;10.77;4.47;;;;;;;2.93;100.00;100955.06;6047356;28;20026;-72
2023/12/14 09:04:00;;;;;;;10.57;4.00;;;;;;;2.89;100.00;100969.25;6044762;28;20447;-73
2023/12/14 09:06:55;;;;;;;14.30;4.40;;;;;;;2.84;100.00;100963.47;6043318;28;20062;-72
2023/12/14 09:09:51;;;;;;;13.27;4.30;;;;;;;2.84;100.00;100976.56;6047417;28;20034;-72
2023/12/14 09:12:46;;;;;;;11.53;4.37;;;;;;;2.82;100.00;100970.56;6051527;28;20038;-73
2023/12/14 09:15:41;;;;;;;18.03;4.97;;;;;;;2.84;100.00;100981.78;6041897;28;20034;-72
2023/12/14 09:18:37;;;;;;;9.93;3.70;;;;;;;2.87;100.00;100985.09;6046496;28;20445;-72
2023/12/14 09:21:32;;;;;;;11.50;3.67;;;;;;;2.99;100.00;101001.81;6048215;28;20584;-72
2023/12/14 09:24:28;;;;;;;10.60;3.85;;;;;;;2.89;100.00;101006.78;6043863;28;20288;-73
2023/12/14 09:27:24;;;;;;;14.43;5.10;;;;;;;2.84;100.00;101005.34;6047471;28;20172;-72
2023/12/14 09:30:19;;;;;;;8.00;3.10;;;;;;;2.84;100.00;101014.06;6048796;28;20466;-73
2023/12/14 09:33:15;;;;;;;10.32;4.07;;;;;;;2.89;100.00;101027.72;6040526;28;20615;-73
2023/12/14 09:36:10;;;;;;;8.63;3.10;;;;;;;2.84;100.00;101018.44;6046951;28;20022;-73
2023/12/14 09:39:10;;;;;;;7.77;3.63;;;;;;;2.83;100.00;101016.75;6043424;28;20108;-72
2023/12/14 09:42:07;;;;;;;10.57;3.38;;;;;;;3.02;100.00;101038.31;6047573;28;20057;-72
2023/12/14 09:45:02;;;;;;;8.15;3.72;;;;;;;3.05;100.00;101038.13;6046284;28;20125;-72
2023/12/14 09:48:00;;;;;;;7.38;2.95;;;;;;;3.11;100.00;101031.69;6046312;28;20469;-72
2023/12/14 09:50:55;;;;;;;6.97;2.83;;;;;;;2.99;100.00;101038.50;6042774;28;20065;-72
2023/12/14 09:53:52;;;;;;;7.85;3.03;;;;;;;3.00;100.00;101041.03;6046312;28;20056;-73
2023/12/14 09:56:48;;;;;;;7.68;2.75;;;;;;;3.03;100.00;101049.63;6047308;28;20496;-73
2023/12/14 09:59:51;;;;;;;9.52;3.03;;;;;;;3.12;100.00;101054.34;6055386;28;20038;-72
2023/12/14 10:02:46;;;;;;;6.05;2.88;;;;;;;2.99;100.00;101044.56;6045044;28;20149;-72
2023/12/14 10:05:42;;;;;;;6.07;2.53;;;;;;;3.13;100.00;101054.25;6039302;28;20042;-73
2023/12/14 10:08:37;;;;;;;6.90;3.00;;;;;;;3.15;100.00;101049.78;6047895;28;20026;-73
2023/12/14 10:11:32;;;;;;;8.00;3.10;;;;;;;3.04;100.00;101043.47;6040637;28;20323;-72
2023/12/14 10:14:27;;;;;;;5.53;2.40;;;;;;;3.13;100.00;101046.38;6047002;28;20779;-72
2023/12/14 10:17:31;;;;;;;7.97;3.13;;;;;;;3.15;100.00;101041.91;6050916;28;20075;-72
2023/12/14 10:20:26;;;;;;;5.93;2.45;;;;;;;3.18;100.00;101060.06;6050965;28;20103;-71
2023/12/14 10:23:22;;;;;;;9.13;3.37;;;;;;;3.16;100.00;101056.69;6047238;28;20026;-73
2023/12/14 10:26:17;;;;;;;7.27;3.43;;;;;;;3.14;100.00;101068.19;6048206;28;20026;-71
2023/12/14 10:29:13;;;;;;;7.40;2.73;;;;;;;3.23;100.00;101068.50;6045011;28;20030;-72
2023/12/14 10:32:11;;;;;;;7.68;2.83;;;;;;;3.16;100.00;101064.53;6042310;28;20028;-71
2023/12/14 10:35:06;;;;;;;9.40;3.78;;;;;;;3.21;100.00;101072.13;6045198;28;20030;-72
2023/12/14 10:38:04;;;;;;;5.93;2.60;;;;;;;3.25;100.00;101081.50;6044815;28;20457;-73
2023/12/14 10:40:59;;;;;;;6.68;2.70;;;;;;;3.20;100.00;101092.28;6047691;28;20261;-72
2023/12/14 10:43:56;;;;;;;11.38;2.90;;;;;;;3.27;100.00;101096.19;6043648;28;20100;-73
2023/12/14 10:46:55;;;;;;;6.88;2.97;;;;;;;3.13;100.00;101088.31;6044483;28;20033;-72
2023/12/14 10:49:51;;;;;;;10.18;3.03;;;;;;;3.20;100.00;101094.03;6045515;28;20034;-73
2023/12/14 10:52:46;;;;;;;8.85;2.85;;;;;;;3.11;100.00;101087.56;6045851;28;20049;-73
2023/12/14 10:55:44;;;;;;;5.80;2.38;;;;;;;3.20;100.00;101101.91;6047929;28;20232;-73
2023/12/14 10:58:46;;;;;;;9.13;3.30;;;;;;;3.20;100.00;101115.84;6043539;28;20042;-73
2023/12/14 11:01:42;;;;;;;8.68;3.17;;;;;;;3.18;100.00;101109.00;6034578;28;20048;-73
2023/12/14 11:04:58;;;;;;;7.53;3.20;;;;;;;3.23;100.00;101120.91;6041293;28;20049;-74
2023/12/14 11:07:55;;;;;;;12.52;4.25;;;;;;;3.39;100.00;101121.69;6041859;28;20125;-72
2023/12/14 11:10:55;;;;;;;8.77;3.60;;;;;;;3.33;100.00;101119.44;6044717;28;20080;-72
2023/12/14 11:13:52;;;;;;;9.07;3.65;;;;;;;3.31;100.00;101123.94;6047370;28;20026;-72
2023/12/14 11:16:48;;;;;;;8.32;2.97;;;;;;;3.39;100.00;101129.56;6041623;28;20425;-73
2023/12/14 11:19:43;;;;;;;7.35;3.50;;;;;;;3.28;100.00;101128.50;6046160;28;20065;-73
2023/12/14 11:22:44;;;;;;;7.60;3.10;;;;;;;3.28;100.00;101137.22;6047437;28;20030;-73
2023/12/14 11:25:41;;;;;;;6.60;3.00;;;;;;;3.40;100.00;101149.56;6040165;28;20029;-72
2023/12/14 11:28:43;;;;;;;7.10;2.97;;;;;;;3.29;100.00;101135.44;6044549;28;20464;-73
2023/12/14 11:31:40;;;;;;;7.18;2.75;;;;;;;3.38;100.00;101150.59;6034675;28;20030;-73
2023/12/14 11:34:35;;;;;;;7.60;2.80;;;;;;;3.28;100.00;101134.59;6048355;28;21375;-74
2023/12/14 11:37:33;;;;;;;13.63;2.83;;;;;;;3.34;100.00;101149.13;6053248;28;20041;-73
2023/12/14 11:40:29;;;;;;;8.45;3.30;;;;;;;3.35;100.00;101161.25;6048058;28;20057;-73
2023/12/14 11:43:26;;;;;;;7.57;3.28;;;;;;;3.37;100.00;101164.66;6051948;28;20396;-73
2023/12/14 11:46:21;;;;;;;8.25;3.50;;;;;;;3.31;100.00;101165.88;6061029;28;20755;-72
2023/12/14 11:49:16;;;;;;;8.20;3.00;;;;;;;3.34;100.00;101176.13;6061340;28;20056;-73
2023/12/14 11:52:12;;;;;;;8.45;3.30;;;;;;;3.34;100.00;101163.03;6057539;28;20014;-73
2023/12/14 11:55:10;;;;;;;7.15;3.13;;;;;;;3.22;100.00;101155.91;6057535;28;20069;-72
2023/12/14 11:58:06;;;;;;;9.20;3.40;;;;;;;3.31;100.00;101176.34;6056597;28;20494;-72
2023/12/14 12:01:16;;;;;;;9.13;3.58;;;;;;;3.31;100.00;101167.63;6055751;28;20071;-73
2023/12/14 12:04:11;;;;;;;5.75;2.47;;;;;;;3.33;100.00;101177.09;6050150;28;20448;-73
2023/12/14 12:07:08;;;;;;;11.75;3.53;;;;;;;3.28;100.00;101171.28;6051543;28;20025;-72
2023/12/14 12:10:06;;;;;;;7.25;3.10;;;;;;;3.28;100.00;101171.28;6056762;28;20037;-72
2023/12/14 12:13:08;;;;;;;7.28;3.65;;;;;;;3.30;100.00;101179.03;6049922;28;20472;-72
2023/12/14 12:16:04;;;;;;;13.23;3.55;;;;;;;3.19;100.00;101176.19;6058597;28;20103;-74
2023/12/14 12:18:59;;;;;;;7.85;3.33;;;;;;;3.26;100.00;101175.75;6054505;28;20469;-73
2023/12/14 12:21:55;;;;;;;8.50;3.37;;;;;;;3.28;100.00;101187.00;6049709;28;20034;-72
2023/12/14 12:24:50;;;;;;;8.93;3.80;;;;;;;3.36;100.00;101195.25;6049187;28;20037;-73
2023/12/14 12:27:46;;;;;;;8.87;3.57;;;;;;;3.27;100.00;101190.53;6048947;28;20401;-73
2023/12/14 12:30:42;;;;;;;10.40;3.72;;;;;;;3.23;100.00;101189.03;6049581;28;20041;-73
2023/12/14 12:33:37;;;;;;;8.88;3.30;;;;;;;3.31;100.00;101205.16;6060811;28;20543;-73
2023/12/14 12:36:33;;;;;;;12.07;4.00;;;;;;;3.25;100.00;101205.50;6055715;28;20038;-74
2023/12/14 12:39:29;;;;;;;9.63;3.35;;;;;;;3.26;100.00;101199.31;6061808;28;20132;-73
2023/12/14 12:42:25;;;;;;;7.47;2.95;;;;;;;3.28;100.00;101212.34;6045692;28;20029;-73
2023/12/14 12:45:22;;;;;;;9.93;3.40;;;;;;;3.28;100.00;101212.34;6057848;28;20405;-73
2023/12/14 12:48:17;;;;;;;6.93;3.00;;;;;;;3.27;100.00;101211.50;6046383;28;20407;-74
2023/12/14 12:51:12;;;;;;;9.57;3.53;;;;;;;3.21;100.00;101211.84;6047139;28;20037;-74
2023/12/14 12:54:08;;;;;;;8.63;3.30;;;;;;;3.26;100.00;101217.66;6048878;28;20051;-72
2023/12/14 12:57:03;;;;;;;9.82;4.03;;;;;;;3.16;100.00;101206.03;6047676;28;20042;-72
2023/12/14 12:59:59;;;;;;;7.70;3.53;;;;;;;3.21;100.00;101208.38;6043999;28;20105;-73
2023/12/14 13:02:54;;;;;;;10.45;3.33;;;;;;;3.22;100.00;101210.94;6049041;28;20476;-73
2023/12/14 13:05:49;;;;;;;8.20;3.40;;;;;;;3.26;100.00;101222.91;6047893;28;20080;-73
2023/12/14 13:08:45;;;;;;;10.52;3.78;;;;;;;3.30;100.00;101228.81;6048035;28;20065;-73
2023/12/14 13:11:40;;;;;;;6.63;3.07;;;;;;;3.31;100.00;101227.91;6049431;28;20037;-73
2023/12/14 13:14:36;;;;;;;8.97;3.20;;;;;;;3.21;100.00;101229.34;6047113;28;20049;-73
2023/12/14 13:17:31;;;;;;;8.02;3.10;;;;;;;3.20;100.00;101218.03;6048985;28;20054;-73
2023/12/14 13:20:26;;;;;;;10.40;3.57;;;;;;;3.28;100.00;101230.69;6043063;28;20053;-72
2023/12/14 13:23:22;;;;;;;10.67;3.37;;;;;;;3.26;100.00;101243.88;6049916;28;20034;-73
2023/12/14 13:26:17;;;;;;;9.07;3.50;;;;;;;3.16;100.00;101227.00;6049621;28;20022;-73
2023/12/14 13:29:13;;;;;;;7.43;3.10;;;;;;;3.24;100.00;101242.28;6047664;28;20025;-73
2023/12/14 13:32:08;;;;;;;10.67;3.30;;;;;;;3.22;100.00;101249.38;6049298;28;20021;-73
2023/12/14 13:35:04;;;;;;;6.90;3.13;;;;;;;3.22;100.00;101260.72;6047414;28;20040;-73